This is the latest recevied weather packets stored in our database for station/object IZ1DME-3. If no packets are shown the sender has not sent any weather packets the latest 10 day(s).
| Time | Temp. | Humidity | Pressure | Rain* | Wind** | Luminosity | Snow |
|---|---|---|---|---|---|---|---|
| 1777318774 | 19.44° C | 52% | 1016.8 hPa | - | - | - | - |
| 1777317274 | 20° C | 50% | 1016.6 hPa | - | - | - | - |
| 1777315774 | 21.11° C | 50% | 1016.2 hPa | - | - | - | - |
| 1777314274 | 21.11° C | 51% | 1016.1 hPa | - | - | - | - |
| 1777312774 | 22.22° C | 43% | 1015.6 hPa | - | - | - | - |
| 1777311275 | 22.78° C | 41% | 1015.6 hPa | - | - | - | - |
| 1777309775 | 22.78° C | 42% | 1015.6 hPa | - | - | - | - |
| 1777308276 | 23.33° C | 39% | 1015.6 hPa | - | - | - | - |
| 1777306775 | 23.89° C | 40% | 1015.5 hPa | - | - | - | - |
| 1777305274 | 25° C | 34% | 1015.2 hPa | - | - | - | - |
| 1777303775 | 25° C | 34% | 1015.3 hPa | - | - | - | - |
| 1777302276 | 25.56° C | 34% | 1015.4 hPa | - | - | - | - |
| 1777300775 | 25.56° C | 34% | 1015.6 hPa | - | - | - | - |
| 1777299275 | 25° C | 37% | 1016 hPa | - | - | - | - |
| 1777297775 | 25° C | 34% | 1016.3 hPa | - | - | - | - |
| 1777296275 | 25° C | 36% | 1016.8 hPa | - | - | - | - |
| 1777294774 | 24.44° C | 37% | 1017.1 hPa | - | - | - | - |
| 1777293275 | 24.44° C | 40% | 1017.4 hPa | - | - | - | - |
| 1777291775 | 23.89° C | 44% | 1017.8 hPa | - | - | - | - |
| 1777290275 | 23.33° C | 44% | 1018.2 hPa | - | - | - | - |
| 1777288774 | 22.78° C | 46% | 1018.6 hPa | - | - | - | - |
| 1777287276 | 22.22° C | 52% | 1018.9 hPa | - | - | - | - |
| 1777285775 | 21.11° C | 52% | 1019.3 hPa | - | - | - | - |
| 1777284275 | 20.56° C | 55% | 1019.6 hPa | - | - | - | - |
| 1777282775 | 19.44° C | 57% | 1019.9 hPa | - | - | - | - |
* Rain since midnight (hover to see other rain measurements)
** Current wind speed in m/s (hover to see current wind gust speed)